Time;durP1;ratioP1;P1;durP2;ratioP2;P2;SDS_P1;SDS_P2;PMS_P1;PMS_P2;Temp;Humidity;BMP_temperature;BMP_pressure;BME280_temperature;BME280_humidity;BME280_pressure;Samples;Min_cycle;Max_cycle;Signal;HPM_P1;HPM_P2
2020/12/30 00:01:30;;;;;;;6.40;5.50;;;8.60;55.90;;;;;;5032156;28;20193;-43
2020/12/30 00:03:56;;;;;;;8.43;5.07;;;8.60;55.60;;;;;;5031496;28;20227;-42
2020/12/30 00:06:22;;;;;;;6.77;4.80;;;8.80;55.40;;;;;;5032224;28;20263;-42
2020/12/30 00:08:48;;;;;;;4.20;3.70;;;8.70;55.40;;;;;;5031621;28;20282;-42
2020/12/30 00:11:16;;;;;;;5.87;3.80;;;8.80;55.30;;;;;;5031961;28;20243;-42
2020/12/30 00:13:42;;;;;;;5.13;3.67;;;8.90;55.10;;;;;;5030931;28;20514;-42
2020/12/30 00:16:08;;;;;;;4.53;4.03;;;9.10;54.90;;;;;;5032048;28;20511;-42
2020/12/30 00:18:33;;;;;;;7.20;4.93;;;9.20;54.60;;;;;;5031555;28;20574;-42
2020/12/30 00:20:59;;;;;;;5.30;4.80;;;9.30;54.50;;;;;;5030156;28;20428;-42
2020/12/30 00:23:24;;;;;;;4.80;3.90;;;9.30;54.30;;;;;;5031029;28;20189;-42
2020/12/30 00:25:51;;;;;;;5.53;5.03;;;9.40;54.30;;;;;;5032004;28;20197;-42
2020/12/30 00:28:17;;;;;;;7.00;4.30;;;9.40;54.30;;;;;;5031300;28;20196;-42
2020/12/30 00:30:43;;;;;;;5.00;4.33;;;9.40;54.20;;;;;;5032028;28;20423;-42
2020/12/30 00:33:09;;;;;;;5.50;4.30;;;9.40;54.20;;;;;;5030707;28;20467;-42
2020/12/30 00:35:34;;;;;;;4.40;4.00;;;9.50;54.20;;;;;;5031665;28;20479;-42
2020/12/30 00:38:00;;;;;;;3.90;3.13;;;9.40;54.20;;;;;;5031013;28;20674;-42
2020/12/30 00:40:26;;;;;;;3.10;2.77;;;9.30;54.20;;;;;;5031509;28;20611;-42
2020/12/30 00:42:51;;;;;;;3.83;2.57;;;9.30;54.40;;;;;;5030453;28;20707;-42
2020/12/30 00:45:17;;;;;;;5.37;3.10;;;9.10;54.50;;;;;;5030594;28;20228;-42
2020/12/30 00:47:42;;;;;;;3.87;2.70;;;9.10;54.70;;;;;;5027129;28;20186;-42
2020/12/30 00:50:08;;;;;;;4.83;3.90;;;9.00;54.70;;;;;;5030765;28;20224;-42
2020/12/30 00:52:34;;;;;;;4.50;3.77;;;9.00;54.90;;;;;;5030530;28;20545;-42
2020/12/30 00:55:00;;;;;;;5.27;3.73;;;9.00;55.10;;;;;;5030999;28;20276;-42
2020/12/30 00:57:26;;;;;;;5.17;3.00;;;9.10;54.90;;;;;;5030768;28;20527;-42
2020/12/30 00:59:53;;;;;;;4.60;3.50;;;9.30;54.70;;;;;;5031542;28;20192;-42
2020/12/30 01:02:18;;;;;;;4.30;3.90;;;9.40;54.40;;;;;;5030618;28;20201;-42
2020/12/30 01:04:44;;;;;;;3.27;2.97;;;9.40;54.20;;;;;;5031107;28;20431;-42
2020/12/30 01:07:11;;;;;;;4.50;4.00;;;9.50;54.10;;;;;;5030325;28;20602;-42
2020/12/30 01:09:37;;;;;;;3.60;3.10;;;9.50;54.50;;;;;;5031219;28;20315;-42
2020/12/30 01:12:05;;;;;;;3.13;2.83;;;9.50;53.80;;;;;;5030031;28;20464;-42
2020/12/30 01:14:32;;;;;;;3.77;3.43;;;9.60;53.90;;;;;;5029336;28;20416;-42
2020/12/30 01:16:58;;;;;;;4.03;3.40;;;9.60;53.90;;;;;;5030484;28;20485;-42
2020/12/30 01:19:24;;;;;;;3.83;3.40;;;9.60;53.90;;;;;;5031005;28;20435;-42
2020/12/30 01:21:50;;;;;;;4.87;2.90;;;9.60;53.80;;;;;;5030035;28;20431;-42
2020/12/30 01:24:16;;;;;;;3.13;2.77;;;9.60;53.70;;;;;;5031096;28;20448;-42
2020/12/30 01:26:43;;;;;;;4.37;3.40;;;9.70;53.80;;;;;;5030379;28;20283;-42
2020/12/30 01:29:08;;;;;;;4.40;2.87;;;9.60;53.70;;;;;;5030952;28;20491;-42
2020/12/30 01:31:35;;;;;;;5.20;4.20;;;9.60;53.60;;;;;;5030421;28;20851;-42
2020/12/30 01:34:02;;;;;;;4.50;3.67;;;9.30;53.70;;;;;;5030438;28;20186;-42
2020/12/30 01:36:28;;;;;;;4.53;3.63;;;9.30;54.30;;;;;;5030797;28;20432;-42
2020/12/30 01:38:54;;;;;;;4.00;3.40;;;9.30;54.30;;;;;;5030505;28;20483;-42
2020/12/30 01:41:21;;;;;;;4.47;3.40;;;9.00;54.30;;;;;;5029266;28;20657;-42
2020/12/30 01:44:03;;;;;;;4.43;3.80;;;8.70;55.30;;;;;;5029770;28;20850;-42
2020/12/30 01:46:36;;;;;;;4.77;4.30;;;8.50;56.20;;;;;;5026844;28;20895;-42
2020/12/30 01:49:05;;;;;;;4.77;3.73;;;8.30;56.60;;;;;;5030660;28;20622;-42
2020/12/30 01:51:32;;;;;;;4.90;4.00;;;8.00;57.00;;;;;;5030232;28;20523;-42
2020/12/30 01:53:59;;;;;;;4.00;3.60;;;7.90;57.80;;;;;;5030469;28;20420;-43
2020/12/30 01:56:29;;;;;;;6.50;4.07;;;8.00;57.80;;;;;;5030787;28;20428;-43
2020/12/30 01:58:55;;;;;;;4.57;3.77;;;8.10;57.40;;;;;;5030396;28;20436;-42
2020/12/30 02:01:27;;;;;;;4.57;3.53;;;8.10;57.70;;;;;;5030954;28;20428;-42
2020/12/30 02:03:56;;;;;;;3.47;3.17;;;8.10;57.60;;;;;;5033779;28;20629;-42
2020/12/30 02:06:22;;;;;;;4.27;3.63;;;8.30;57.30;;;;;;5034472;28;20435;-42
2020/12/30 02:08:48;;;;;;;4.53;3.53;;;8.50;56.90;;;;;;5032066;28;20467;-42
2020/12/30 02:11:14;;;;;;;3.90;3.50;;;8.50;56.60;;;;;;5034661;28;20845;-42
2020/12/30 02:13:40;;;;;;;3.97;3.20;;;8.70;56.50;;;;;;5033428;28;20625;-43
2020/12/30 02:16:05;;;;;;;3.67;2.90;;;8.80;56.10;;;;;;5034644;28;20243;-42
2020/12/30 02:18:31;;;;;;;3.33;2.80;;;8.90;55.70;;;;;;5033439;28;20250;-42
2020/12/30 02:20:56;;;;;;;3.70;3.20;;;9.00;55.50;;;;;;5034276;28;20198;-42
2020/12/30 02:23:23;;;;;;;5.13;3.27;;;8.90;55.20;;;;;;5033319;28;20633;-42
2020/12/30 02:25:48;;;;;;;2.80;2.60;;;8.50;56.10;;;;;;5034387;28;20208;-42
2020/12/30 02:28:14;;;;;;;3.67;2.87;;;8.40;56.70;;;;;;5033197;28;20423;-42
2020/12/30 02:30:39;;;;;;;4.90;2.93;;;8.30;56.90;;;;;;5034212;28;20284;-42
2020/12/30 02:33:09;;;;;;;2.63;2.37;;;8.30;56.60;;;;;;5033101;28;20190;-42
2020/12/30 02:35:34;;;;;;;2.63;2.43;;;8.20;56.90;;;;;;5032241;28;20667;-42
2020/12/30 02:38:00;;;;;;;3.90;2.20;;;8.30;56.80;;;;;;5033135;28;20558;-42
2020/12/30 02:40:25;;;;;;;2.87;2.30;;;8.50;56.50;;;;;;5033733;28;20201;-42
2020/12/30 02:42:52;;;;;;;2.90;2.50;;;8.60;56.00;;;;;;5033137;28;20549;-43
2020/12/30 02:45:18;;;;;;;2.30;2.10;;;8.70;55.90;;;;;;5032899;28;20863;-42
2020/12/30 02:47:44;;;;;;;3.33;1.87;;;8.80;55.60;;;;;;5030945;28;20539;-42
2020/12/30 02:50:09;;;;;;;3.10;2.30;;;8.80;55.60;;;;;;5033080;28;20587;-42
2020/12/30 02:52:35;;;;;;;2.40;2.20;;;8.60;55.70;;;;;;5032537;28;20561;-42
2020/12/30 02:55:00;;;;;;;3.43;2.87;;;8.70;56.00;;;;;;5033468;28;20671;-42
2020/12/30 02:57:26;;;;;;;3.00;2.43;;;9.00;55.80;;;;;;5033068;28;20189;-42
2020/12/30 02:59:57;;;;;;;3.67;3.27;;;9.10;55.40;;;;;;5034008;28;20205;-42
2020/12/30 03:02:26;;;;;;;2.47;2.27;;;9.30;55.20;;;;;;5030832;28;20185;-42
2020/12/30 03:04:53;;;;;;;2.30;2.10;;;9.30;54.80;;;;;;5033471;28;20470;-42
2020/12/30 03:07:19;;;;;;;2.03;1.80;;;9.10;54.60;;;;;;5032809;28;21337;-42
2020/12/30 03:09:45;;;;;;;2.93;2.20;;;9.10;55.20;;;;;;5032948;28;20498;-42
2020/12/30 03:12:11;;;;;;;3.20;1.40;;;9.10;55.20;;;;;;5032547;28;20424;-42
2020/12/30 03:14:37;;;;;;;2.17;1.97;;;9.10;55.30;;;;;;5032611;28;20473;-43
2020/12/30 03:17:02;;;;;;;2.03;1.73;;;9.10;55.40;;;;;;5032563;28;20278;-42
2020/12/30 03:19:28;;;;;;;2.97;1.37;;;9.10;55.30;;;;;;5033188;28;20201;-42
2020/12/30 03:21:55;;;;;;;4.40;1.47;;;9.20;55.30;;;;;;5032157;28;20251;-42
2020/12/30 03:24:21;;;;;;;2.23;1.23;;;9.30;55.20;;;;;;5033348;28;20192;-42
2020/12/30 03:26:46;;;;;;;1.77;1.40;;;9.40;55.00;;;;;;5032360;28;20856;-42
2020/12/30 03:29:12;;;;;;;1.83;1.40;;;9.40;54.80;;;;;;5031092;28;20980;-42
2020/12/30 03:31:38;;;;;;;1.33;1.10;;;9.40;54.50;;;;;;5031934;28;20189;-42
2020/12/30 03:34:04;;;;;;;3.50;1.50;;;9.30;54.70;;;;;;5032890;28;20193;-42
2020/12/30 03:36:29;;;;;;;1.80;1.50;;;9.30;54.90;;;;;;5032509;28;20281;-42
2020/12/30 03:38:55;;;;;;;2.83;1.57;;;9.50;54.80;;;;;;5032318;28;20204;-42
2020/12/30 03:41:20;;;;;;;1.50;1.40;;;9.50;54.70;;;;;;5032916;28;20265;-42
2020/12/30 03:43:46;;;;;;;1.83;1.73;;;9.30;55.10;;;;;;5032175;28;20600;-42
2020/12/30 03:46:12;;;;;;;3.47;1.83;;;9.10;55.50;;;;;;5029252;28;20196;-42
2020/12/30 03:48:37;;;;;;;2.13;1.67;;;8.70;56.10;;;;;;5031732;28;20220;-42
2020/12/30 03:51:03;;;;;;;1.50;1.40;;;8.60;56.80;;;;;;5032473;28;20279;-42
2020/12/30 03:53:28;;;;;;;3.57;1.57;;;8.60;57.20;;;;;;5031607;28;20197;-42
2020/12/30 03:55:54;;;;;;;1.67;1.57;;;8.50;57.10;;;;;;5030828;28;20197;-42
2020/12/30 03:58:20;;;;;;;1.70;1.60;;;8.40;57.40;;;;;;5031795;28;20193;-42
2020/12/30 04:00:46;;;;;;;6.60;1.83;;;8.50;57.50;;;;;;5032089;28;20193;-42
2020/12/30 04:03:12;;;;;;;3.03;1.60;;;8.70;57.10;;;;;;5031208;28;20455;-42
2020/12/30 04:05:37;;;;;;;2.60;1.67;;;8.90;56.60;;;;;;5032207;28;20645;-42
2020/12/30 04:08:03;;;;;;;3.70;1.73;;;9.10;56.00;;;;;;5031547;28;20703;-42
2020/12/30 04:10:29;;;;;;;3.50;1.53;;;9.20;55.60;;;;;;5031762;28;20738;-43
2020/12/30 04:12:55;;;;;;;1.80;1.70;;;9.40;55.40;;;;;;5031328;28;20244;-42
2020/12/30 04:15:20;;;;;;;1.87;1.10;;;9.50;55.10;;;;;;5032165;28;20808;-42
2020/12/30 04:17:46;;;;;;;1.43;1.33;;;9.60;54.90;;;;;;5031298;28;20204;-42
2020/12/30 04:20:11;;;;;;;3.00;1.77;;;9.70;54.70;;;;;;5031818;28;20189;-42
2020/12/30 04:22:37;;;;;;;1.50;1.40;;;9.70;54.60;;;;;;5029649;28;20661;-42
2020/12/30 04:25:03;;;;;;;1.97;1.33;;;9.70;54.40;;;;;;5031222;28;20288;-42
2020/12/30 04:27:29;;;;;;;2.53;1.63;;;9.80;54.40;;;;;;5030977;28;20262;-42
2020/12/30 04:29:54;;;;;;;2.10;1.33;;;9.80;54.30;;;;;;5031821;28;20541;-42
2020/12/30 04:32:20;;;;;;;2.23;1.40;;;9.80;54.10;;;;;;5030888;28;20644;-42
2020/12/30 04:34:46;;;;;;;2.17;1.50;;;9.80;54.10;;;;;;5031914;28;20204;-42
2020/12/30 04:37:14;;;;;;;1.93;1.70;;;9.80;54.00;;;;;;5031136;28;20683;-42
2020/12/30 04:39:41;;;;;;;2.40;1.77;;;9.80;54.00;;;;;;5031649;28;20259;-42
2020/12/30 04:42:08;;;;;;;2.57;1.90;;;9.80;54.00;;;;;;5030826;28;20420;-42
2020/12/30 04:44:36;;;;;;;3.07;2.27;;;9.80;54.00;;;;;;5031612;28;20468;-42
2020/12/30 04:47:03;;;;;;;3.00;1.60;;;9.80;53.90;;;;;;5027167;28;20511;-42
2020/12/30 04:49:29;;;;;;;2.40;1.40;;;9.70;53.60;;;;;;5029781;28;20913;-42
2020/12/30 04:51:55;;;;;;;1.63;1.53;;;9.70;53.70;;;;;;5030583;28;20434;-42
2020/12/30 04:54:21;;;;;;;4.73;1.93;;;9.70;53.70;;;;;;5031444;28;20903;-42
2020/12/30 04:57:00;;;;;;;1.90;1.50;;;9.70;53.60;;;;;;5030733;28;20435;-42
2020/12/30 04:59:27;;;;;;;1.97;1.80;;;9.70;53.40;;;;;;5031395;28;20961;-42
2020/12/30 05:02:04;;;;;;;4.03;1.90;;;9.40;53.70;;;;;;5030400;28;20790;-42
2020/12/30 05:04:34;;;;;;;2.17;1.87;;;9.40;54.10;;;;;;5031030;28;20447;-42
2020/12/30 05:07:05;;;;;;;2.13;1.40;;;9.40;54.10;;;;;;5030427;28;20983;-42
2020/12/30 05:09:33;;;;;;;1.50;1.40;;;9.30;53.80;;;;;;5031340;28;20480;-42
2020/12/30 05:11:59;;;;;;;2.50;1.60;;;9.30;54.10;;;;;;5030407;28;20547;-42
2020/12/30 05:14:24;;;;;;;2.40;1.60;;;9.30;54.20;;;;;;5029123;28;20512;-42
2020/12/30 05:16:50;;;;;;;2.30;1.80;;;9.40;54.10;;;;;;5030903;28;20839;-42
2020/12/30 05:19:16;;;;;;;2.53;2.33;;;9.40;53.90;;;;;;5031363;28;20201;-42
2020/12/30 05:21:41;;;;;;;5.10;2.30;;;9.40;53.80;;;;;;5030187;28;20716;-42
2020/12/30 05:24:08;;;;;;;2.67;1.60;;;9.50;53.90;;;;;;5030916;28;20196;-42
2020/12/30 05:26:35;;;;;;;2.70;1.73;;;9.50;53.70;;;;;;5030237;28;20235;-42
2020/12/30 05:29:03;;;;;;;3.30;2.20;;;9.40;53.70;;;;;;5030852;28;20542;-42
2020/12/30 05:31:29;;;;;;;2.70;1.43;;;9.50;53.70;;;;;;5030147;28;20432;-42
2020/12/30 05:33:54;;;;;;;1.40;1.13;;;9.50;53.60;;;;;;5030611;28;20423;-42
2020/12/30 05:36:25;;;;;;;2.40;1.30;;;9.50;53.50;;;;;;5030888;28;20196;-42
2020/12/30 05:38:51;;;;;;;2.60;1.70;;;9.40;53.50;;;;;;5034555;28;20205;-42
2020/12/30 05:41:22;;;;;;;7.20;3.00;;;9.40;53.50;;;;;;5032999;28;20423;-42
2020/12/30 05:43:48;;;;;;;3.70;2.97;;;9.50;53.60;;;;;;5034139;28;20438;-42
2020/12/30 05:46:27;;;;;;;6.67;2.70;;;9.50;53.50;;;;;;5032345;28;20456;-42
2020/12/30 05:48:53;;;;;;;2.50;2.00;;;9.50;53.50;;;;;;5034152;28;20477;-42
2020/12/30 05:51:26;;;;;;;5.27;2.43;;;9.50;53.60;;;;;;5034584;28;20514;-42
2020/12/30 05:54:11;;;;;;;2.53;1.80;;;9.50;53.70;;;;;;5034383;28;20212;-42
2020/12/30 05:56:38;;;;;;;3.03;1.60;;;9.50;53.70;;;;;;5034012;28;20431;-43
2020/12/30 05:59:04;;;;;;;1.80;1.30;;;9.50;53.60;;;;;;5034605;28;20475;-42
2020/12/30 06:01:31;;;;;;;2.70;1.70;;;9.30;53.50;;;;;;5033838;28;20434;-42
2020/12/30 06:04:18;;;;;;;5.93;1.50;;;9.10;54.10;;;;;;5034053;28;20825;-42
2020/12/30 06:06:45;;;;;;;2.07;1.57;;;9.10;54.30;;;;;;5033777;28;20978;-42
2020/12/30 06:09:16;;;;;;;1.93;1.70;;;8.90;54.40;;;;;;5032988;28;20544;-42
2020/12/30 06:11:50;;;;;;;4.50;2.53;;;8.80;55.00;;;;;;5033599;28;20464;-42
2020/12/30 06:14:17;;;;;;;5.93;4.40;;;8.40;55.70;;;;;;5034061;28;20423;-42
2020/12/30 06:16:44;;;;;;;4.10;2.30;;;8.40;56.20;;;;;;5033781;28;20435;-42
2020/12/30 06:19:12;;;;;;;3.10;2.10;;;8.20;56.50;;;;;;5034240;28;21218;-42
2020/12/30 06:21:44;;;;;;;2.07;1.87;;;8.10;56.90;;;;;;5033118;28;21034;-42
2020/12/30 06:24:15;;;;;;;2.13;1.60;;;8.10;57.30;;;;;;5033956;28;20983;-42
2020/12/30 06:26:42;;;;;;;4.60;2.53;;;8.00;57.20;;;;;;5033430;28;20943;-42
2020/12/30 06:29:13;;;;;;;4.73;2.93;;;8.20;57.10;;;;;;5034242;28;20571;-42
2020/12/30 06:31:47;;;;;;;2.93;2.57;;;8.30;56.70;;;;;;5033110;28;20519;-42
2020/12/30 06:34:13;;;;;;;2.07;1.87;;;8.50;56.20;;;;;;5033034;28;20431;-42
2020/12/30 06:36:40;;;;;;;2.63;2.00;;;8.60;55.80;;;;;;5033002;28;20825;-42
2020/12/30 06:39:24;;;;;;;3.50;1.97;;;8.50;56.00;;;;;;5033883;28;20420;-42
2020/12/30 06:42:04;;;;;;;5.27;2.50;;;8.70;55.90;;;;;;5033108;28;20440;-42
2020/12/30 06:44:41;;;;;;;4.60;3.07;;;8.70;55.60;;;;;;5033544;28;20800;-42
2020/12/30 06:47:11;;;;;;;4.43;2.93;;;8.10;56.40;;;;;;5029704;28;20442;-42
2020/12/30 06:49:37;;;;;;;3.10;2.80;;;8.30;56.50;;;;;;5032501;28;20484;-42
2020/12/30 06:52:24;;;;;;;8.57;3.50;;;8.50;56.20;;;;;;5032429;28;20420;-42
2020/12/30 06:54:49;;;;;;;5.20;3.53;;;8.40;55.80;;;;;;5033643;28;20919;-42
2020/12/30 06:57:37;;;;;;;3.13;2.13;;;8.10;56.40;;;;;;5032965;28;20484;-42
2020/12/30 07:00:29;;;;;;;3.57;2.17;;;8.10;56.60;;;;;;5033584;28;20276;-42
2020/12/30 07:03:17;;;;;;;3.40;2.17;;;8.30;56.50;;;;;;5025190;28;20436;-42
2020/12/30 07:05:45;;;;;;;1.90;1.80;;;8.30;56.50;;;;;;5033428;28;20436;-42
2020/12/30 07:08:11;;;;;;;4.23;1.83;;;8.30;56.30;;;;;;5032706;28;20482;-42
2020/12/30 07:10:44;;;;;;;3.40;1.90;;;8.40;56.20;;;;;;5032988;28;20621;-42
2020/12/30 07:13:24;;;;;;;6.00;2.13;;;8.40;56.20;;;;;;5032315;28;20428;-42
2020/12/30 07:15:50;;;;;;;2.67;2.30;;;8.60;55.90;;;;;;5033531;28;20428;-42
2020/12/30 07:18:25;;;;;;;4.00;1.77;;;8.70;55.40;;;;;;5032439;28;20450;-42
2020/12/30 07:20:50;;;;;;;2.03;1.40;;;8.30;55.30;;;;;;5033234;28;20203;-42
2020/12/30 07:23:16;;;;;;;2.03;1.83;;;8.10;56.10;;;;;;5031999;28;20416;-42
2020/12/30 07:25:49;;;;;;;2.20;1.90;;;8.30;56.50;;;;;;5032782;28;20935;-42
2020/12/30 07:28:15;;;;;;;4.97;2.70;;;8.40;56.20;;;;;;5031023;28;20432;-42
2020/12/30 07:30:41;;;;;;;6.67;4.00;;;8.00;56.30;;;;;;5032973;28;20491;-42
2020/12/30 07:33:07;;;;;;;7.40;3.40;;;7.80;57.00;;;;;;5031917;28;20440;-42
2020/12/30 07:35:32;;;;;;;13.30;6.37;;;7.50;57.60;;;;;;5032663;28;20201;-42
2020/12/30 07:38:00;;;;;;;19.10;10.93;;;7.60;58.30;;;;;;5030963;28;20300;-42
2020/12/30 07:40:26;;;;;;;18.30;10.50;;;7.70;57.90;;;;;;5032642;28;20201;-42
2020/12/30 07:42:56;;;;;;;15.27;9.60;;;8.00;57.40;;;;;;5031762;28;20412;-42
2020/12/30 07:45:22;;;;;;;11.70;6.77;;;8.20;56.50;;;;;;5030870;28;20201;-42
2020/12/30 07:47:47;;;;;;;8.33;4.40;;;8.50;56.00;;;;;;5031220;28;20431;-42
2020/12/30 07:50:13;;;;;;;3.40;2.87;;;8.50;55.60;;;;;;5032478;28;20271;-42
2020/12/30 07:52:38;;;;;;;2.33;2.13;;;8.60;55.50;;;;;;5031525;28;20649;-42
2020/12/30 07:55:04;;;;;;;2.40;2.20;;;8.60;55.10;;;;;;5030754;28;20203;-42
2020/12/30 07:57:30;;;;;;;2.73;1.93;;;8.50;55.00;;;;;;5031552;28;20225;-42
2020/12/30 07:59:56;;;;;;;2.37;1.70;;;8.30;55.20;;;;;;5032457;28;20243;-42
2020/12/30 08:02:24;;;;;;;4.57;2.17;;;8.10;55.20;;;;;;5031618;28;20424;-42
2020/12/30 08:05:00;;;;;;;4.70;2.10;;;8.00;55.60;;;;;;5032442;28;20197;-42
2020/12/30 08:07:28;;;;;;;5.63;3.73;;;8.30;56.00;;;;;;5031541;28;20500;-42
2020/12/30 08:09:54;;;;;;;2.50;2.30;;;8.50;55.50;;;;;;5032010;28;20904;-42
2020/12/30 08:12:20;;;;;;;2.70;2.30;;;8.10;55.10;;;;;;5031353;28;20428;-42
2020/12/30 08:14:45;;;;;;;3.37;2.50;;;8.40;55.00;;;;;;5032254;28;20189;-42
2020/12/30 08:17:13;;;;;;;3.80;2.50;;;8.70;54.50;;;;;;5031509;28;20196;-42
2020/12/30 08:19:46;;;;;;;5.70;2.23;;;8.70;54.00;;;;;;5031880;28;20193;-42
2020/12/30 08:22:15;;;;;;;2.30;1.97;;;8.90;53.50;;;;;;5030122;28;20523;-42
2020/12/30 08:24:49;;;;;;;1.43;1.33;;;8.80;53.30;;;;;;5032169;28;20817;-42
2020/12/30 08:27:20;;;;;;;1.60;1.50;;;8.70;53.60;;;;;;5031396;28;20523;-42
2020/12/30 08:29:47;;;;;;;3.07;1.70;;;8.70;53.50;;;;;;5031720;28;20491;-42
2020/12/30 08:32:31;;;;;;;2.63;1.60;;;8.80;53.30;;;;;;5030979;28;20440;-42
2020/12/30 08:35:03;;;;;;;3.40;1.33;;;8.80;52.70;;;;;;5031636;28;20514;-42
2020/12/30 08:37:32;;;;;;;2.67;1.80;;;8.70;53.20;;;;;;5031128;28;20432;-42
2020/12/30 08:40:04;;;;;;;3.57;1.23;;;8.80;53.20;;;;;;5031707;28;20530;-42
2020/12/30 08:42:54;;;;;;;1.80;1.70;;;8.90;52.90;;;;;;5030663;28;20479;-42
2020/12/30 08:45:30;;;;;;;2.20;1.43;;;9.00;52.60;;;;;;5029910;28;20424;-42
2020/12/30 08:47:58;;;;;;;4.80;1.93;;;9.10;52.50;;;;;;5028868;28;20509;-42
2020/12/30 08:50:25;;;;;;;2.23;1.70;;;9.30;52.20;;;;;;5026689;28;20983;-42
2020/12/30 08:52:52;;;;;;;2.40;1.60;;;9.30;51.70;;;;;;5030732;28;20452;-42
2020/12/30 08:55:18;;;;;;;1.57;1.23;;;9.30;51.60;;;;;;5045745;28;20463;-42
2020/12/30 08:57:48;;;;;;;2.93;1.80;;;9.20;51.20;;;;;;5050707;28;20433;-42
2020/12/30 09:00:20;;;;;;;5.57;3.10;;;9.30;51.60;;;;;;5051288;28;20431;-42
2020/12/30 09:02:48;;;;;;;3.30;1.97;;;9.10;51.90;;;;;;5050506;28;20442;-43
2020/12/30 09:05:24;;;;;;;2.20;1.73;;;9.20;52.00;;;;;;5051222;28;20934;-42
2020/12/30 09:07:50;;;;;;;2.50;1.63;;;9.40;51.70;;;;;;5050502;28;20466;-43
2020/12/30 09:10:15;;;;;;;2.27;1.20;;;9.30;51.30;;;;;;5034300;28;20490;-42
2020/12/30 09:12:42;;;;;;;1.97;1.87;;;9.30;51.30;;;;;;5029572;28;20220;-42
2020/12/30 09:15:07;;;;;;;1.30;1.20;;;9.30;51.40;;;;;;5029403;28;20453;-42
2020/12/30 09:17:34;;;;;;;2.33;1.33;;;9.40;51.40;;;;;;5030416;28;20424;-42
2020/12/30 09:20:14;;;;;;;3.03;1.80;;;9.30;51.30;;;;;;5030955;28;20251;-43
2020/12/30 09:22:41;;;;;;;3.03;1.27;;;9.30;51.40;;;;;;5030172;28;20443;-42
2020/12/30 09:25:22;;;;;;;1.77;1.50;;;9.30;51.70;;;;;;5031027;28;20915;-42
2020/12/30 09:27:48;;;;;;;4.10;2.23;;;9.40;51.70;;;;;;5030228;28;20431;-42
2020/12/30 09:30:16;;;;;;;4.03;2.40;;;9.50;51.70;;;;;;5030937;28;20492;-42
2020/12/30 09:32:44;;;;;;;3.00;1.77;;;9.30;51.60;;;;;;5029900;28;20197;-42
2020/12/30 09:35:11;;;;;;;1.97;1.73;;;9.30;52.10;;;;;;5030893;28;20950;-42
2020/12/30 09:37:38;;;;;;;2.90;1.70;;;9.30;52.00;;;;;;5030480;28;20424;-42
2020/12/30 09:40:09;;;;;;;2.70;1.70;;;9.10;52.20;;;;;;5030661;28;20419;-42
2020/12/30 09:42:34;;;;;;;4.97;2.23;;;9.10;52.30;;;;;;5028168;28;20923;-42
2020/12/30 09:45:01;;;;;;;4.37;2.60;;;9.20;52.30;;;;;;5030887;28;20419;-42
2020/12/30 09:47:27;;;;;;;3.20;2.20;;;9.40;52.10;;;;;;5026555;28;20192;-42
2020/12/30 09:49:53;;;;;;;3.57;2.17;;;9.50;51.70;;;;;;5030627;28;20490;-42
2020/12/30 09:52:18;;;;;;;2.80;2.50;;;9.30;52.10;;;;;;5030175;28;20208;-42
2020/12/30 09:54:44;;;;;;;3.07;2.37;;;9.20;52.70;;;;;;5031098;28;20261;-42
2020/12/30 09:57:09;;;;;;;3.13;2.30;;;9.30;52.90;;;;;;5029933;28;20564;-42
2020/12/30 09:59:35;;;;;;;3.37;2.80;;;9.10;53.00;;;;;;5030680;28;20211;-42
2020/12/30 10:02:00;;;;;;;7.17;4.00;;;9.30;53.10;;;;;;5029827;28;20190;-42
2020/12/30 10:04:26;;;;;;;6.00;3.40;;;9.50;52.60;;;;;;5030822;28;20756;-42
2020/12/30 10:06:51;;;;;;;3.93;3.07;;;9.70;52.40;;;;;;5029781;28;20347;-42
2020/12/30 10:09:17;;;;;;;5.67;4.40;;;9.70;51.90;;;;;;5029057;28;20229;-42
2020/12/30 10:11:43;;;;;;;4.63;2.73;;;9.70;51.90;;;;;;5029635;28;20279;-42
2020/12/30 10:14:08;;;;;;;3.23;2.20;;;9.60;52.10;;;;;;5030674;28;20192;-42
2020/12/30 10:16:34;;;;;;;3.83;2.20;;;9.70;52.00;;;;;;5029932;28;20196;-42
2020/12/30 10:19:00;;;;;;;2.13;2.00;;;9.80;51.60;;;;;;5030395;28;20219;-42
2020/12/30 10:21:31;;;;;;;2.83;2.33;;;9.80;51.30;;;;;;5030283;28;20288;-42
2020/12/30 10:23:58;;;;;;;2.33;1.70;;;9.80;51.90;;;;;;5033103;28;20201;-42
2020/12/30 10:26:24;;;;;;;3.63;1.40;;;9.80;51.30;;;;;;5034012;28;20430;-42
2020/12/30 10:28:50;;;;;;;2.53;2.03;;;9.80;50.90;;;;;;5033559;28;20424;-42
2020/12/30 10:31:15;;;;;;;4.20;2.77;;;9.90;50.70;;;;;;5033630;28;20196;-42
2020/12/30 10:33:41;;;;;;;6.60;3.07;;;10.00;49.80;;;;;;5033521;28;20193;-42
2020/12/30 10:36:10;;;;;;;2.37;1.83;;;9.80;51.30;;;;;;5032307;28;20649;-42
2020/12/30 10:38:36;;;;;;;2.13;1.47;;;9.30;51.50;;;;;;5033078;28;20197;-42
2020/12/30 10:41:02;;;;;;;2.37;1.80;;;9.40;52.30;;;;;;5033506;28;20868;-42
2020/12/30 10:43:28;;;;;;;2.03;1.70;;;9.30;52.20;;;;;;5033238;28;20516;-42
2020/12/30 10:45:53;;;;;;;4.30;2.00;;;9.70;52.10;;;;;;5030255;28;20202;-42
2020/12/30 10:48:19;;;;;;;2.10;1.73;;;9.80;51.30;;;;;;5033165;28;20633;-42
2020/12/30 10:50:44;;;;;;;1.77;1.47;;;9.80;50.90;;;;;;5034019;28;20225;-42
2020/12/30 10:53:10;;;;;;;3.37;1.50;;;9.70;51.10;;;;;;5033066;28;20547;-42
2020/12/30 10:55:35;;;;;;;3.83;2.03;;;9.70;51.40;;;;;;5033447;28;20185;-42
2020/12/30 10:58:01;;;;;;;2.40;1.73;;;9.90;51.20;;;;;;5032848;28;20193;-42
2020/12/30 11:00:27;;;;;;;3.47;2.10;;;10.10;50.00;;;;;;5033532;28;20208;-42
2020/12/30 11:02:53;;;;;;;4.10;2.70;;;10.20;49.60;;;;;;5031111;28;20248;-42
2020/12/30 11:05:18;;;;;;;5.73;2.10;;;10.30;49.60;;;;;;5033517;28;20185;-42
2020/12/30 11:07:44;;;;;;;2.50;1.97;;;10.40;49.60;;;;;;5032613;28;20975;-42
2020/12/30 11:10:10;;;;;;;2.50;1.93;;;10.40;49.20;;;;;;5033012;28;20228;-42
2020/12/30 11:12:36;;;;;;;3.03;2.50;;;10.60;49.00;;;;;;5032605;28;20247;-42
2020/12/30 11:15:06;;;;;;;4.90;2.10;;;10.50;48.60;;;;;;5033223;28;20424;-42
2020/12/30 11:17:32;;;;;;;3.20;1.57;;;10.20;49.50;;;;;;5032705;28;20192;-42
2020/12/30 11:19:58;;;;;;;2.10;1.60;;;10.20;49.60;;;;;;5033526;28;20851;-43
2020/12/30 11:22:26;;;;;;;2.50;1.50;;;10.40;49.70;;;;;;5032312;28;20538;-42
2020/12/30 11:24:52;;;;;;;5.77;2.03;;;10.50;49.40;;;;;;5033087;28;20193;-42
2020/12/30 11:27:18;;;;;;;2.87;1.73;;;10.40;49.10;;;;;;5032462;28;20453;-42
2020/12/30 11:29:43;;;;;;;1.70;1.60;;;10.50;49.20;;;;;;5031326;28;20241;-42
2020/12/30 11:32:09;;;;;;;2.70;1.60;;;10.70;49.30;;;;;;5032186;28;20590;-43
2020/12/30 11:34:35;;;;;;;1.70;1.50;;;10.70;49.00;;;;;;5032380;28;20201;-42
2020/12/30 11:37:00;;;;;;;1.67;1.50;;;10.40;49.10;;;;;;5032140;28;20230;-42
2020/12/30 11:39:26;;;;;;;1.90;1.80;;;10.40;49.50;;;;;;5032673;28;20205;-42
2020/12/30 11:41:52;;;;;;;3.40;1.40;;;10.60;49.60;;;;;;5032006;28;20197;-42
2020/12/30 11:44:18;;;;;;;2.90;2.13;;;10.70;49.40;;;;;;5032702;28;20189;-42
2020/12/30 11:46:44;;;;;;;5.70;2.30;;;10.80;49.10;;;;;;5029447;28;20205;-42
2020/12/30 11:49:10;;;;;;;2.53;2.20;;;10.80;49.10;;;;;;5032444;28;20468;-43
2020/12/30 11:51:39;;;;;;;2.33;1.80;;;10.80;49.20;;;;;;5031832;28;20439;-42
2020/12/30 11:54:05;;;;;;;3.00;1.90;;;10.60;49.70;;;;;;5032500;28;20189;-42
2020/12/30 11:56:31;;;;;;;2.57;2.10;;;10.60;49.80;;;;;;5030286;28;20937;-42
2020/12/30 11:58:57;;;;;;;1.93;1.60;;;10.80;50.00;;;;;;5032136;28;20428;-42
2020/12/30 12:01:23;;;;;;;2.00;1.80;;;10.80;50.10;;;;;;5032356;28;20442;-42
2020/12/30 12:03:48;;;;;;;3.03;1.50;;;11.00;50.20;;;;;;5031841;28;20251;-42
2020/12/30 12:06:14;;;;;;;3.17;1.90;;;11.10;50.80;;;;;;5032169;28;20276;-42
2020/12/30 12:08:40;;;;;;;2.55;1.75;;;11.10;50.20;;;;;;5031611;28;20311;-42
2020/12/30 12:11:06;;;;;;;4.43;1.67;;;11.00;50.10;;;;;;5031831;28;20201;-42
2020/12/30 12:13:32;;;;;;;3.00;1.60;;;11.10;50.20;;;;;;5031489;28;20826;-42
2020/12/30 12:15:58;;;;;;;2.87;1.70;;;10.90;49.90;;;;;;5032059;28;20451;-42
2020/12/30 12:18:23;;;;;;;2.00;1.50;;;10.90;50.10;;;;;;5031359;28;20247;-43
2020/12/30 12:20:49;;;;;;;1.90;1.70;;;10.90;50.50;;;;;;5031859;28;20657;-42
2020/12/30 12:23:14;;;;;;;1.90;1.57;;;11.00;50.50;;;;;;5029886;28;20197;-42
2020/12/30 12:25:43;;;;;;;2.00;1.50;;;11.00;50.30;;;;;;5032097;28;20197;-42
2020/12/30 12:28:09;;;;;;;2.03;1.43;;;11.10;50.30;;;;;;5031336;28;20224;-42
2020/12/30 12:30:35;;;;;;;2.20;1.60;;;10.90;50.50;;;;;;5031844;28;20511;-43
2020/12/30 12:33:00;;;;;;;3.10;1.40;;;10.80;51.00;;;;;;5031346;28;20252;-42
2020/12/30 12:35:26;;;;;;;1.60;1.30;;;10.80;51.20;;;;;;5031639;28;20236;-42
2020/12/30 12:38:06;;;;;;;2.10;1.53;;;10.70;51.10;;;;;;5029929;28;20665;-42
2020/12/30 12:40:32;;;;;;;1.27;1.17;;;10.80;51.40;;;;;;5031762;28;20201;-42
2020/12/30 12:42:57;;;;;;;1.43;1.33;;;10.50;51.20;;;;;;5030633;28;20834;-42
2020/12/30 12:45:23;;;;;;;1.53;1.23;;;10.30;51.50;;;;;;5029495;28;20432;-42
2020/12/30 12:47:49;;;;;;;1.40;1.30;;;10.40;51.60;;;;;;5028084;28;20606;-42
2020/12/30 12:50:14;;;;;;;2.60;1.60;;;10.50;51.60;;;;;;5031075;28;20232;-42
2020/12/30 12:52:40;;;;;;;1.93;1.23;;;10.50;51.60;;;;;;5030353;28;20181;-42
2020/12/30 12:55:05;;;;;;;3.03;1.57;;;10.70;51.80;;;;;;5031369;28;20645;-42
2020/12/30 12:57:31;;;;;;;4.30;1.50;;;10.90;52.10;;;;;;5030871;28;20611;-42